Time;durP1;ratioP1;P1;durP2;ratioP2;P2;SDS_P1;SDS_P2;PMS_P1;PMS_P2;Temp;Humidity;BMP_temperature;BMP_pressure;BME280_temperature;BME280_humidity;BME280_pressure;Samples;Min_cycle;Max_cycle;Signal;HPM_P1;HPM_P2
2023/10/04 00:00:14;;;;;;;19.03;11.87;;;;;;;16.53;72.62;95572.84;5094834;28;21020;-83
2023/10/04 00:02:41;;;;;;;17.47;11.23;;;;;;;16.43;72.14;95572.91;5094898;28;20940;-82
2023/10/04 00:05:10;;;;;;;17.43;11.30;;;;;;;16.43;73.14;95572.06;5095207;28;20431;-82
2023/10/04 00:07:37;;;;;;;16.03;11.70;;;;;;;16.34;73.71;95570.31;5094800;28;20490;-82
2023/10/04 00:10:05;;;;;;;16.07;10.70;;;;;;;16.29;73.52;95564.63;5094750;28;20907;-82
2023/10/04 00:12:32;;;;;;;17.60;11.00;;;;;;;16.28;73.46;95568.25;5095002;28;20927;-82
2023/10/04 00:14:58;;;;;;;15.33;10.30;;;;;;;16.30;74.48;95566.31;5094418;28;20436;-81
2023/10/04 00:17:27;;;;;;;20.90;11.30;;;;;;;16.38;72.94;95569.88;5095189;28;20470;-83
2023/10/04 00:19:54;;;;;;;16.10;11.27;;;;;;;16.37;73.29;95562.06;5094465;28;20789;-82
2023/10/04 00:22:23;;;;;;;18.47;10.83;;;;;;;16.33;73.18;95561.53;5058984;28;20832;-82
2023/10/04 00:24:51;;;;;;;14.50;9.93;;;;;;;16.31;73.06;95560.03;5094437;28;20454;-83
2023/10/04 00:27:18;;;;;;;13.87;11.20;;;;;;;16.27;73.19;95563.94;5094369;28;20902;-82
2023/10/04 00:29:45;;;;;;;17.83;10.30;;;;;;;16.28;73.34;95562.97;5059306;28;20568;-82
2023/10/04 00:32:13;;;;;;;11.33;9.47;;;;;;;16.25;74.06;95563.28;5094495;28;20426;-82
2023/10/04 00:34:41;;;;;;;17.17;10.63;;;;;;;16.20;73.39;95565.53;5094522;28;20916;-82
2023/10/04 00:37:09;;;;;;;15.33;10.53;;;;;;;16.21;73.50;95559.25;5094474;28;20440;-82
2023/10/04 00:39:36;;;;;;;19.67;10.37;;;;;;;16.20;74.19;95557.59;5093850;28;20454;-83
2023/10/04 00:42:04;;;;;;;18.03;12.87;;;;;;;16.22;73.65;95563.56;5094703;28;20437;-83
2023/10/04 00:44:35;;;;;;;16.93;11.00;;;;;;;16.21;73.87;95562.72;5094467;28;20984;-81
2023/10/04 00:47:07;;;;;;;14.87;10.60;;;;;;;16.31;74.06;95565.31;5094307;28;20480;-83
2023/10/04 00:49:34;;;;;;;17.30;10.50;;;;;;;16.22;73.79;95555.63;5094116;28;20515;-82
2023/10/04 00:52:08;;;;;;;14.23;10.77;;;;;;;16.24;73.33;95556.31;5094056;28;20447;-82
2023/10/04 00:54:35;;;;;;;16.17;11.37;;;;;;;16.19;73.44;95559.41;5094172;28;20448;-83
2023/10/04 00:57:02;;;;;;;16.73;11.20;;;;;;;16.20;73.93;95555.78;5093592;28;20520;-82
2023/10/04 00:59:29;;;;;;;15.73;10.43;;;;;;;16.24;72.98;95561.59;5093726;28;20445;-82
2023/10/04 01:01:56;;;;;;;16.80;10.53;;;;;;;16.21;73.31;95552.13;5093747;28;20466;-81
2023/10/04 01:04:26;;;;;;;16.83;11.73;;;;;;;16.21;72.92;95561.91;5093544;28;21008;-82
2023/10/04 01:06:54;;;;;;;13.80;10.70;;;;;;;16.23;73.41;95559.94;5059100;28;20440;-82
2023/10/04 01:09:23;;;;;;;12.97;10.60;;;;;;;16.20;73.44;95553.13;5092991;28;20513;-82
2023/10/04 01:11:50;;;;;;;13.70;9.93;;;;;;;16.16;73.03;95561.47;5093570;28;20444;-81
2023/10/04 01:14:25;;;;;;;15.20;11.20;;;;;;;16.20;72.70;95560.22;5093443;28;20446;-81
2023/10/04 01:16:53;;;;;;;19.23;10.93;;;;;;;16.15;72.34;95559.81;5093089;28;20818;-81
2023/10/04 01:19:22;;;;;;;13.40;11.33;;;;;;;16.11;73.47;95560.13;5093467;28;20448;-80
2023/10/04 01:21:49;;;;;;;15.20;10.27;;;;;;;16.12;73.67;95558.31;5093280;28;20451;-82
2023/10/04 01:24:19;;;;;;;15.77;10.70;;;;;;;16.14;72.84;95568.75;5093057;28;20824;-81
2023/10/04 01:26:46;;;;;;;17.70;11.43;;;;;;;16.14;73.61;95561.63;5093289;28;20451;-82
2023/10/04 01:29:15;;;;;;;20.20;10.87;;;;;;;16.15;73.12;95567.75;5093146;28;20481;-81
2023/10/04 01:31:43;;;;;;;22.90;11.93;;;;;;;16.20;73.20;95568.19;5093077;28;20927;-81
2023/10/04 01:34:13;;;;;;;17.87;12.20;;;;;;;16.24;73.50;95561.59;5057953;28;20437;-82
2023/10/04 01:36:41;;;;;;;18.20;11.53;;;;;;;16.28;73.13;95574.41;5093105;28;20470;-82
2023/10/04 01:39:15;;;;;;;13.90;11.23;;;;;;;16.31;72.10;95573.25;5092974;28;20921;-81
2023/10/04 01:41:43;;;;;;;13.40;10.47;;;;;;;16.39;72.18;95568.88;5092890;28;20929;-82
2023/10/04 01:44:10;;;;;;;18.13;10.67;;;;;;;16.36;72.48;95571.81;5093143;28;20440;-82
2023/10/04 01:46:37;;;;;;;23.40;11.00;;;;;;;16.40;72.06;95573.19;5093102;28;20436;-82
2023/10/04 01:49:05;;;;;;;15.17;11.80;;;;;;;16.40;72.42;95565.25;5093124;28;20520;-82
2023/10/04 01:51:32;;;;;;;15.43;11.07;;;;;;;16.36;71.25;95571.00;5097496;28;20937;-81
2023/10/04 01:54:00;;;;;;;17.80;12.40;;;;;;;16.30;72.05;95563.66;5097162;28;20445;-81
2023/10/04 01:56:27;;;;;;;20.60;11.63;;;;;;;16.31;71.28;95570.63;5097099;28;20948;-82
2023/10/04 01:58:56;;;;;;;13.27;10.70;;;;;;;16.33;71.92;95566.84;5096918;28;20450;-82
2023/10/04 02:01:22;;;;;;;16.00;12.20;;;;;;;16.33;71.52;95560.69;5096833;28;20460;-82
2023/10/04 02:03:49;;;;;;;16.30;11.60;;;;;;;16.13;71.75;95569.72;5096769;28;20797;-81
2023/10/04 02:06:16;;;;;;;15.60;10.83;;;;;;;16.09;72.11;95570.03;5096679;28;20453;-81
2023/10/04 02:08:44;;;;;;;17.07;11.60;;;;;;;15.88;72.67;95563.28;5096544;28;20487;-82
2023/10/04 02:11:11;;;;;;;13.77;10.17;;;;;;;15.87;73.84;95562.47;5096645;28;20987;-82
2023/10/04 02:13:40;;;;;;;14.10;10.33;;;;;;;15.89;73.38;95570.25;5096673;28;20538;-82
2023/10/04 02:16:09;;;;;;;13.60;9.63;;;;;;;15.88;73.16;95568.59;5096406;28;20795;-80
2023/10/04 02:18:36;;;;;;;15.63;10.20;;;;;;;15.89;72.87;95576.38;5096544;28;20453;-82
2023/10/04 02:21:03;;;;;;;15.97;10.70;;;;;;;15.91;72.16;95570.97;5096592;28;20454;-82
2023/10/04 02:23:30;;;;;;;18.60;11.13;;;;;;;15.85;72.30;95561.78;5096267;28;20445;-81
2023/10/04 02:25:58;;;;;;;15.53;10.30;;;;;;;15.86;73.05;95576.66;5096123;28;20993;-82
2023/10/04 02:28:25;;;;;;;14.33;9.93;;;;;;;15.83;72.19;95574.31;5095942;28;20795;-81
2023/10/04 02:30:54;;;;;;;15.27;10.83;;;;;;;15.84;72.56;95568.03;5096408;28;20446;-81
2023/10/04 02:33:27;;;;;;;13.93;9.57;;;;;;;15.82;73.00;95572.66;5096492;28;20544;-82
2023/10/04 02:35:56;;;;;;;12.93;9.60;;;;;;;15.83;73.37;95565.53;5096457;28;20537;-82
2023/10/04 02:38:26;;;;;;;14.67;9.77;;;;;;;15.84;73.19;95570.69;5096326;28;20471;-82
2023/10/04 02:40:53;;;;;;;13.87;10.20;;;;;;;15.83;72.68;95570.84;5096536;28;20462;-81
2023/10/04 02:43:21;;;;;;;17.23;10.00;;;;;;;15.75;72.07;95566.28;5096343;28;20442;-82
2023/10/04 02:45:49;;;;;;;18.60;11.40;;;;;;;15.70;73.00;95574.66;5096656;28;20440;-81
2023/10/04 02:48:16;;;;;;;15.10;10.20;;;;;;;15.75;73.48;95575.06;5096592;28;20488;-82
2023/10/04 02:50:44;;;;;;;16.37;10.87;;;;;;;15.74;73.30;95573.38;5096781;28;20432;-81
2023/10/04 02:53:13;;;;;;;15.20;10.40;;;;;;;15.79;73.57;95572.94;5060405;28;20471;-81
2023/10/04 02:55:41;;;;;;;17.23;10.63;;;;;;;15.68;72.79;95570.50;5096006;28;20502;-81
2023/10/04 02:58:07;;;;;;;14.60;10.60;;;;;;;15.74;74.62;95561.97;5096094;28;21022;-80
2023/10/04 03:00:42;;;;;;;16.60;9.90;;;;;;;15.90;73.17;95569.28;5095515;28;20437;-81
2023/10/04 03:03:09;;;;;;;16.40;10.93;;;;;;;15.91;72.51;95566.50;5096790;28;20928;-81
2023/10/04 03:05:37;;;;;;;15.60;12.50;;;;;;;15.76;71.15;95565.31;5095683;28;20532;-81
2023/10/04 03:08:08;;;;;;;18.20;11.93;;;;;;;15.56;73.82;95568.94;5095566;28;20445;-81
2023/10/04 03:10:37;;;;;;;21.93;12.00;;;;;;;15.54;74.06;95568.25;5095566;28;20791;-81
2023/10/04 03:13:11;;;;;;;14.83;10.37;;;;;;;15.58;74.47;95569.63;5095884;28;20531;-82
2023/10/04 03:15:39;;;;;;;14.47;10.70;;;;;;;15.64;74.05;95569.13;5095270;28;20477;-81
2023/10/04 03:18:13;;;;;;;15.30;11.63;;;;;;;15.73;74.47;95574.38;5095769;28;20444;-81
2023/10/04 03:20:47;;;;;;;13.30;11.07;;;;;;;15.81;73.88;95568.34;5095181;28;20446;-81
2023/10/04 03:23:18;;;;;;;14.00;9.63;;;;;;;15.88;73.41;95565.94;5095370;28;20453;-82
2023/10/04 03:25:46;;;;;;;12.73;9.53;;;;;;;15.84;72.58;95570.69;5095641;28;20452;-83
2023/10/04 03:28:14;;;;;;;17.73;10.90;;;;;;;15.76;72.06;95582.00;5068128;28;20455;-81
2023/10/04 03:30:43;;;;;;;16.67;10.33;;;;;;;15.73;71.44;95578.81;5054561;28;20529;-80
2023/10/04 03:33:10;;;;;;;15.93;11.70;;;;;;;15.62;72.23;95579.00;5036238;28;20525;-79
2023/10/04 03:35:39;;;;;;;23.93;11.60;;;;;;;15.60;72.39;95580.94;5054412;28;20862;-80
2023/10/04 03:38:06;;;;;;;14.30;11.00;;;;;;;15.56;72.31;95583.00;5054600;28;20442;-79
2023/10/04 03:40:36;;;;;;;16.30;10.57;;;;;;;15.60;72.17;95580.94;5054551;28;20445;-81
2023/10/04 03:43:05;;;;;;;13.10;10.50;;;;;;;15.59;70.78;95581.91;5054336;28;20450;-79
2023/10/04 03:45:32;;;;;;;16.60;11.30;;;;;;;15.58;72.19;95585.50;5054135;28;20477;-82
2023/10/04 03:47:59;;;;;;;16.13;10.33;;;;;;;15.61;72.40;95579.97;5054709;28;20442;-79
2023/10/04 03:50:27;;;;;;;16.93;11.37;;;;;;;15.68;71.13;95575.78;5054037;28;20486;-78
2023/10/04 03:52:57;;;;;;;11.37;10.20;;;;;;;15.66;70.79;95575.94;5054555;28;20971;-78
2023/10/04 03:55:26;;;;;;;19.53;10.40;;;;;;;15.68;71.07;95581.06;5054519;28;20489;-78
2023/10/04 03:57:55;;;;;;;17.80;11.13;;;;;;;15.71;71.95;95580.78;5054820;28;20453;-78
2023/10/04 04:00:25;;;;;;;19.67;12.53;;;;;;;15.69;73.25;95582.75;5054523;28;20461;-77
2023/10/04 04:02:54;;;;;;;26.30;12.47;;;;;;;16.20;76.50;95573.47;5057865;28;20456;-77
2023/10/04 04:05:22;;;;;;;21.33;11.47;;;;;;;16.26;73.17;95583.47;5094339;28;20476;-76
2023/10/04 04:07:49;;;;;;;19.70;12.27;;;;;;;16.21;70.24;95583.91;5094124;28;20494;-77
2023/10/04 04:10:18;;;;;;;20.37;11.80;;;;;;;16.22;69.28;95579.47;5093886;28;20521;-76
2023/10/04 04:12:46;;;;;;;16.10;10.90;;;;;;;16.18;70.41;95583.34;5093700;28;20445;-77
2023/10/04 04:15:15;;;;;;;19.27;12.90;;;;;;;16.08;70.96;95581.59;5093426;28;20461;-76
2023/10/04 04:17:46;;;;;;;16.13;11.17;;;;;;;15.99;71.85;95579.00;5093884;28;20491;-76
2023/10/04 04:20:16;;;;;;;19.83;12.47;;;;;;;15.99;73.19;95585.13;5093919;28;20467;-76
2023/10/04 04:22:47;;;;;;;23.93;13.27;;;;;;;16.00;71.61;95578.84;5093679;28;20464;-76
2023/10/04 04:25:15;;;;;;;18.83;11.63;;;;;;;16.07;72.21;95579.94;5093804;28;20510;-78
2023/10/04 04:27:45;;;;;;;18.50;12.73;;;;;;;16.15;71.89;95584.47;5093340;28;20978;-77
2023/10/04 04:30:17;;;;;;;22.47;11.73;;;;;;;16.17;70.94;95586.97;5057710;28;20509;-76
2023/10/04 04:32:45;;;;;;;16.87;10.77;;;;;;;16.16;70.40;95580.03;5074470;28;20443;-76
2023/10/04 04:35:22;;;;;;;13.27;10.83;;;;;;;16.13;70.96;95575.84;5093617;28;20920;-76
2023/10/04 04:37:53;;;;;;;17.33;11.57;;;;;;;16.18;68.80;95583.34;5093345;28;20936;-76
2023/10/04 04:40:25;;;;;;;16.27;11.20;;;;;;;16.08;70.89;95578.94;5093448;28;20446;-76
2023/10/04 04:42:52;;;;;;;16.20;11.77;;;;;;;16.06;72.19;95567.66;5093181;28;20878;-76
2023/10/04 04:45:24;;;;;;;20.77;11.70;;;;;;;16.05;71.33;95571.31;5095465;28;20771;-76
2023/10/04 04:47:51;;;;;;;17.33;10.57;;;;;;;16.09;70.84;95574.47;5093444;28;20501;-77
2023/10/04 04:50:19;;;;;;;24.73;12.17;;;;;;;15.96;69.45;95568.72;5092984;28;20487;-77
2023/10/04 04:52:45;;;;;;;18.30;11.20;;;;;;;15.67;70.43;95574.94;5093289;28;20448;-76
2023/10/04 04:55:14;;;;;;;13.73;11.63;;;;;;;15.31;73.21;95571.22;5091487;28;20460;-78
2023/10/04 04:57:41;;;;;;;24.33;12.77;;;;;;;15.34;71.58;95570.97;5072721;28;20932;-76
2023/10/04 05:00:31;;;;;;;33.27;14.10;;;;;;;14.99;73.10;95573.34;5072899;28;20838;-77
2023/10/04 05:02:59;;;;;;;26.47;12.47;;;;;;;15.04;74.15;95573.81;5072469;28;20436;-77
2023/10/04 05:05:26;;;;;;;26.70;13.20;;;;;;;15.11;72.77;95575.72;5072397;28;20437;-76
2023/10/04 05:07:53;;;;;;;29.03;14.30;;;;;;;15.07;73.93;95578.81;5072381;28;20444;-77
2023/10/04 05:10:22;;;;;;;18.37;12.10;;;;;;;15.31;78.57;95579.16;5053486;28;20482;-76
2023/10/04 05:12:50;;;;;;;27.80;13.23;;;;;;;15.97;91.52;95584.44;5071954;28;20443;-75
2023/10/04 05:15:27;;;;;;;18.00;10.87;;;;;;;16.05;76.68;95584.53;5072076;28;20476;-76
2023/10/04 05:17:54;;;;;;;19.97;11.43;;;;;;;16.65;71.97;95595.50;5071944;28;20456;-76
2023/10/04 05:20:24;;;;;;;18.57;11.10;;;;;;;17.08;67.97;95583.34;5036975;28;20460;-77
2023/10/04 05:22:51;;;;;;;18.70;12.00;;;;;;;17.33;66.83;95595.78;5067938;28;20464;-77
2023/10/04 05:25:18;;;;;;;20.20;11.37;;;;;;;17.57;65.93;95589.00;5061013;28;20548;-76
2023/10/04 05:27:46;;;;;;;18.33;11.23;;;;;;;17.89;63.72;95599.84;5068790;28;20449;-77
2023/10/04 05:30:16;;;;;;;23.30;13.13;;;;;;;18.15;61.73;95599.81;5068002;28;20965;-76
2023/10/04 05:32:42;;;;;;;27.77;13.67;;;;;;;18.58;62.36;95600.66;5074363;28;20458;-77
2023/10/04 05:35:12;;;;;;;23.70;12.97;;;;;;;18.65;60.66;95598.22;5072259;28;20445;-77
2023/10/04 05:37:40;;;;;;;19.97;11.40;;;;;;;18.80;59.11;95605.41;5071875;28;20930;-76
2023/10/04 05:40:15;;;;;;;14.60;10.00;;;;;;;19.03;59.52;95610.91;5071527;28;20441;-77
2023/10/04 05:42:42;;;;;;;23.87;11.50;;;;;;;19.14;58.44;95613.28;5072031;28;20434;-77
2023/10/04 05:45:11;;;;;;;16.33;10.93;;;;;;;19.31;58.23;95610.63;5071972;28;20457;-77
2023/10/04 05:47:38;;;;;;;15.70;10.33;;;;;;;18.71;58.28;95616.19;5036501;28;20458;-77
2023/10/04 05:50:08;;;;;;;23.10;10.73;;;;;;;18.72;59.92;95620.50;5072065;28;20572;-77
2023/10/04 05:52:35;;;;;;;15.27;10.40;;;;;;;19.17;58.66;95617.44;5071497;28;20522;-76
2023/10/04 05:55:04;;;;;;;12.70;9.60;;;;;;;19.31;59.52;95616.75;5071722;28;20442;-77
2023/10/04 05:57:31;;;;;;;15.10;10.33;;;;;;;19.63;58.05;95618.63;5071624;28;20436;-77
2023/10/04 05:59:58;;;;;;;16.00;10.80;;;;;;;19.54;55.97;95611.66;5071614;28;20451;-77
2023/10/04 06:02:25;;;;;;;22.23;11.83;;;;;;;19.63;58.83;95620.44;5071965;28;20445;-77
2023/10/04 06:04:53;;;;;;;14.33;11.30;;;;;;;20.02;57.46;95624.06;5071611;28;20437;-77
2023/10/04 06:07:19;;;;;;;21.43;12.27;;;;;;;20.26;56.28;95619.69;5071630;28;20461;-77
2023/10/04 06:09:46;;;;;;;14.20;9.67;;;;;;;20.44;56.38;95627.47;5071340;28;20838;-77
2023/10/04 06:12:15;;;;;;;18.10;10.30;;;;;;;20.25;54.55;95621.53;5071774;28;20787;-77
2023/10/04 06:14:42;;;;;;;16.73;11.60;;;;;;;20.32;55.88;95619.81;5072049;28;20442;-78
2023/10/04 06:17:10;;;;;;;19.63;11.30;;;;;;;20.19;54.42;95614.19;5071298;28;20472;-77
2023/10/04 06:19:37;;;;;;;17.30;12.03;;;;;;;19.55;55.01;95623.13;5071472;28;20447;-77
2023/10/04 06:22:04;;;;;;;15.83;11.33;;;;;;;19.68;57.03;95623.47;5071557;28;20927;-77
2023/10/04 06:24:30;;;;;;;16.87;11.20;;;;;;;19.98;56.47;95619.25;5071460;28;20439;-77
2023/10/04 06:26:57;;;;;;;15.10;10.07;;;;;;;19.59;57.40;95627.13;5071715;28;20444;-78
2023/10/04 06:29:26;;;;;;;18.67;11.00;;;;;;;19.81;58.31;95621.09;5071427;28;20491;-78
2023/10/04 06:31:52;;;;;;;18.43;12.13;;;;;;;20.21;57.60;95625.50;5071339;28;20539;-77
2023/10/04 06:34:19;;;;;;;21.40;10.93;;;;;;;20.57;56.97;95633.09;5071113;28;20821;-78
2023/10/04 06:36:46;;;;;;;18.20;11.93;;;;;;;20.60;55.03;95630.06;5072797;28;20551;-78
2023/10/04 06:39:14;;;;;;;14.83;11.07;;;;;;;20.84;55.87;95626.47;5074734;28;20441;-77
2023/10/04 06:41:41;;;;;;;18.30;11.90;;;;;;;21.01;54.57;95634.19;5074987;28;20798;-78
2023/10/04 06:44:08;;;;;;;19.43;13.27;;;;;;;21.01;54.71;95628.84;5075154;28;20440;-78
2023/10/04 06:46:36;;;;;;;18.23;12.33;;;;;;;21.13;54.25;95631.97;5074737;28;20500;-78
2023/10/04 06:49:05;;;;;;;15.87;12.03;;;;;;;21.33;54.24;95627.81;5074738;28;20533;-78
2023/10/04 06:51:30;;;;;;;19.03;12.53;;;;;;;21.46;53.33;95632.59;5074922;28;20487;-78
2023/10/04 06:53:58;;;;;;;18.90;11.60;;;;;;;21.62;53.12;95631.59;5075089;28;20435;-77
2023/10/04 06:56:25;;;;;;;24.87;11.07;;;;;;;21.68;52.04;95635.41;5075255;28;20192;-77
2023/10/04 06:58:51;;;;;;;14.97;10.40;;;;;;;21.61;52.47;95640.63;5074701;28;20525;-77
2023/10/04 07:01:18;;;;;;;17.13;10.13;;;;;;;21.71;52.72;95640.41;5088765;28;20930;-78
2023/10/04 07:03:46;;;;;;;14.17;11.07;;;;;;;21.71;51.39;95643.91;5094961;28;20440;-77
2023/10/04 07:06:13;;;;;;;14.33;11.33;;;;;;;21.52;51.81;95644.38;5094972;28;20440;-78
2023/10/04 07:08:41;;;;;;;18.67;11.10;;;;;;;21.55;51.52;95644.03;5094593;28;20959;-78
2023/10/04 07:11:07;;;;;;;15.80;10.43;;;;;;;21.54;51.71;95647.72;5094552;28;20493;-78
2023/10/04 07:13:34;;;;;;;16.70;10.33;;;;;;;21.61;50.44;95640.63;5094462;28;20451;-77
2023/10/04 07:16:06;;;;;;;23.73;10.80;;;;;;;21.61;50.99;95644.13;5094192;28;20997;-78
2023/10/04 07:18:32;;;;;;;16.60;11.03;;;;;;;21.53;50.71;95641.53;5087065;28;20969;-77
2023/10/04 07:21:00;;;;;;;17.20;10.53;;;;;;;21.13;51.45;95633.78;5088665;28;20806;-78
2023/10/04 07:23:27;;;;;;;16.80;10.80;;;;;;;21.11;54.04;95633.97;5077895;28;20447;-77
2023/10/04 07:25:54;;;;;;;14.73;10.27;;;;;;;21.43;53.36;95630.28;5074077;28;20441;-77
2023/10/04 07:28:24;;;;;;;14.70;10.80;;;;;;;21.25;52.25;95629.72;5073665;28;20474;-77
2023/10/04 07:30:51;;;;;;;19.40;10.20;;;;;;;21.25;55.50;95619.06;5074206;28;20562;-77
2023/10/04 07:33:18;;;;;;;24.83;12.03;;;;;;;21.51;52.91;95619.53;5073781;28;20855;-77
2023/10/04 07:35:45;;;;;;;17.37;10.60;;;;;;;21.69;51.50;95618.38;5074051;28;20434;-77
2023/10/04 07:38:13;;;;;;;16.90;10.13;;;;;;;21.94;52.21;95622.47;5073812;28;20443;-77
2023/10/04 07:40:40;;;;;;;16.93;10.43;;;;;;;22.16;50.83;95613.59;5073706;28;20452;-78
2023/10/04 07:43:07;;;;;;;15.17;11.33;;;;;;;22.15;49.99;95614.59;5073633;28;20503;-78
2023/10/04 07:45:34;;;;;;;13.57;11.50;;;;;;;;;;5067766;28;20787;-77
2023/10/04 07:48:01;;;;;;;17.30;12.23;;;;;;;22.44;49.97;95618.28;5093961;28;20937;-77
2023/10/04 07:50:28;;;;;;;19.17;11.03;;;;;;;22.32;49.97;95615.25;5093867;28;20477;-78
2023/10/04 07:52:56;;;;;;;17.10;11.73;;;;;;;22.02;50.58;95614.38;5093938;28;20533;-78
2023/10/04 07:55:25;;;;;;;21.03;12.00;;;;;;;21.74;51.34;95603.47;5093627;28;20510;-77
2023/10/04 07:57:53;;;;;;;17.50;12.33;;;;;;;21.25;51.92;95606.53;5093590;28;20449;-78
2023/10/04 08:00:21;;;;;;;18.83;11.70;;;;;;;21.07;53.24;95605.13;5093697;28;20466;-77
2023/10/04 08:02:50;;;;;;;22.23;12.60;;;;;;;20.85;53.33;95610.28;5094053;28;20448;-78
2023/10/04 08:05:19;;;;;;;17.37;11.70;;;;;;;21.06;54.11;95609.63;5093401;28;20436;-78
2023/10/04 08:07:46;;;;;;;21.30;15.47;;;;;;;21.21;53.54;95599.88;5094243;28;20931;-78
2023/10/04 08:10:14;;;;;;;23.47;13.13;;;;;;;21.43;53.12;95614.25;5093932;28;20574;-76
2023/10/04 08:12:43;;;;;;;19.00;11.00;;;;;;;21.36;55.89;95601.78;5058781;28;20454;-76
2023/10/04 08:15:14;;;;;;;17.00;12.10;;;;;;;21.54;53.58;95603.13;5093945;28;20457;-76
2023/10/04 08:17:43;;;;;;;25.30;12.23;;;;;;;21.61;52.75;95600.56;5094134;28;20535;-76
2023/10/04 08:20:13;;;;;;;20.70;13.07;;;;;;;21.65;52.93;95600.00;5094264;28;20485;-76
2023/10/04 08:22:41;;;;;;;18.13;11.73;;;;;;;21.73;52.70;95599.13;5093730;28;20444;-76
2023/10/04 08:25:10;;;;;;;18.83;12.40;;;;;;;21.64;52.55;95594.84;5093923;28;20454;-76
2023/10/04 08:27:37;;;;;;;19.53;13.57;;;;;;;21.67;52.83;95591.81;5058296;28;20443;-76
2023/10/04 08:30:07;;;;;;;21.83;12.23;;;;;;;21.75;51.36;95594.44;5062574;28;20485;-76
2023/10/04 08:32:34;;;;;;;21.40;13.00;;;;;;;21.63;51.75;95590.53;5058452;28;20443;-74
2023/10/04 08:35:02;;;;;;;27.97;12.20;;;;;;;22.19;57.09;95591.00;5073022;28;20448;-76
2023/10/04 08:37:29;;;;;;;18.03;12.00;;;;;;;22.75;55.87;95585.94;5073260;28;20788;-76
2023/10/04 08:39:56;;;;;;;18.53;12.70;;;;;;;23.11;50.28;95588.63;5066829;28;20507;-76
2023/10/04 08:42:24;;;;;;;16.00;11.40;;;;;;;22.69;49.89;95582.19;5025212;28;20946;-76
2023/10/04 08:44:51;;;;;;;19.23;11.83;;;;;;;22.14;48.92;95580.03;5066522;28;20430;-76
2023/10/04 08:47:19;;;;;;;14.97;10.43;;;;;;;22.27;53.67;95579.41;5072621;28;20462;-76
2023/10/04 08:49:54;;;;;;;12.40;10.50;;;;;;;22.55;50.57;95583.88;5072906;28;20502;-79
2023/10/04 08:52:28;;;;;;;17.60;10.90;;;;;;;22.67;50.27;95576.19;5060609;28;20464;-79
2023/10/04 08:55:06;;;;;;;17.00;11.07;;;;;;;22.61;48.92;95578.81;5052975;28;20466;-79
2023/10/04 08:57:38;;;;;;;17.90;12.13;;;;;;;22.71;50.23;95572.13;5054087;28;20558;-79
2023/10/04 09:00:13;;;;;;;17.60;11.80;;;;;;;22.74;48.99;95581.63;5069223;28;20450;-78
2023/10/04 09:02:43;;;;;;;19.60;13.10;;;;;;;22.55;48.58;95578.53;5063246;28;20448;-79
2023/10/04 09:05:15;;;;;;;18.00;12.67;;;;;;;22.36;49.59;95584.44;5071984;28;20434;-79
2023/10/04 09:07:43;;;;;;;19.40;10.77;;;;;;;22.34;49.66;95577.63;5072318;28;20468;-79
2023/10/04 09:10:15;;;;;;;17.40;11.03;;;;;;;22.52;50.64;95583.41;5072284;28;20449;-79
2023/10/04 09:12:42;;;;;;;20.80;11.10;;;;;;;22.71;49.75;95572.13;5038389;28;20481;-79
2023/10/04 09:15:10;;;;;;;22.70;11.30;;;;;;;22.88;49.53;95571.94;5072496;28;20455;-79
2023/10/04 09:17:47;;;;;;;22.77;12.33;;;;;;;22.93;49.00;95569.53;5037260;28;20435;-79
2023/10/04 09:20:16;;;;;;;15.50;11.47;;;;;;;22.52;49.48;95573.53;5036492;28;20442;-78
2023/10/04 09:22:44;;;;;;;21.67;11.67;;;;;;;22.42;49.60;95570.31;5004819;28;20528;-78
2023/10/04 09:25:11;;;;;;;21.47;11.83;;;;;;;22.70;49.46;95564.28;5071765;28;20534;-78
2023/10/04 09:27:38;;;;;;;18.73;11.93;;;;;;;22.60;48.76;95559.25;5071990;28;20441;-78
2023/10/04 09:30:21;;;;;;;19.87;12.17;;;;;;;22.41;49.20;95563.31;5071993;28;21023;-79
2023/10/04 09:32:51;;;;;;;23.93;12.97;;;;;;;22.64;50.31;95559.69;5072100;28;20809;-79
2023/10/04 09:35:19;;;;;;;17.10;12.47;;;;;;;22.74;48.76;95565.56;5072056;28;20496;-78
2023/10/04 09:37:46;;;;;;;15.97;11.17;;;;;;;22.84;49.07;95566.97;5071886;28;20452;-79
2023/10/04 09:40:17;;;;;;;16.13;11.03;;;;;;;22.96;49.12;95553.06;5072174;28;20929;-78
2023/10/04 09:42:49;;;;;;;20.83;11.97;;;;;;;23.01;49.00;95553.31;5071978;28;20444;-78
2023/10/04 09:45:16;;;;;;;23.40;11.53;;;;;;;23.08;48.28;95555.03;5071913;28;20523;-78
2023/10/04 09:47:43;;;;;;;23.50;12.97;;;;;;;23.15;47.75;95552.47;5072079;28;20470;-79
2023/10/04 09:50:20;;;;;;;21.83;12.90;;;;;;;23.28;48.20;95547.22;5071657;28;20453;-78
2023/10/04 09:52:47;;;;;;;16.03;12.10;;;;;;;23.41;46.93;95541.94;5071893;28;20447;-78
2023/10/04 09:55:14;;;;;;;16.00;12.10;;;;;;;23.31;46.82;95541.47;5071806;28;20500;-78
2023/10/04 09:57:43;;;;;;;23.73;12.60;;;;;;;23.34;46.56;95540.25;5071758;28;20450;-78
2023/10/04 10:00:17;;;;;;;24.93;13.53;;;;;;;23.15;47.07;95539.91;5071760;28;20447;-78
2023/10/04 10:02:48;;;;;;;17.83;11.83;;;;;;;23.32;48.71;95548.47;5071708;28;20890;-78
2023/10/04 10:05:22;;;;;;;18.07;12.50;;;;;;;23.25;47.34;95549.44;5071616;28;20455;-78
2023/10/04 10:07:53;;;;;;;20.67;12.53;;;;;;;23.28;48.14;95538.34;5072043;28;20534;-78
2023/10/04 10:10:21;;;;;;;23.97;12.73;;;;;;;23.11;46.89;95543.13;5072676;28;20822;-78
2023/10/04 10:12:49;;;;;;;18.67;12.47;;;;;;;23.17;46.60;95545.88;5056560;28;20444;-78
2023/10/04 10:15:18;;;;;;;25.40;12.30;;;;;;;23.17;47.16;95518.28;5075053;28;20508;-78
2023/10/04 10:17:46;;;;;;;22.60;13.03;;;;;;;23.01;46.16;95519.34;5075387;28;20452;-79
2023/10/04 10:20:15;;;;;;;18.93;11.33;;;;;;;23.12;47.83;95524.19;5056658;28;20432;-78
2023/10/04 10:23:13;;;;;;;20.67;11.40;;;;;;;23.32;47.00;95521.69;5075210;28;20891;-78
2023/10/04 10:25:41;;;;;;;16.03;11.37;;;;;;;23.47;46.13;95508.22;5075583;28;20988;-79
2023/10/04 10:28:22;;;;;;;19.47;11.53;;;;;;;23.65;45.43;95499.72;5074883;28;20510;-79
2023/10/04 10:30:59;;;;;;;19.77;12.40;;;;;;;23.77;45.31;95498.16;5075148;28;20486;-78
2023/10/04 10:33:26;;;;;;;19.83;12.20;;;;;;;23.90;44.58;95498.22;5075279;28;20444;-78
2023/10/04 10:35:59;;;;;;;18.07;12.43;;;;;;;23.95;43.89;95490.41;5073217;28;20471;-78
2023/10/04 10:38:44;;;;;;;20.87;11.23;;;;;;;23.98;43.30;95481.97;5074905;28;20839;-79
2023/10/04 10:42:07;;;;;;;17.10;12.43;;;;;;;24.03;44.67;95479.56;5074957;28;20858;-78
2023/10/04 10:44:39;;;;;;;19.40;10.77;;;;;;;24.09;43.38;95484.13;5074811;28;20852;-78
2023/10/04 10:47:08;;;;;;;27.60;12.93;;;;;;;24.12;43.43;95474.00;5074885;28;20444;-79
2023/10/04 10:49:39;;;;;;;16.93;10.40;;;;;;;24.17;42.02;95471.56;5074838;28;20455;-78
2023/10/04 10:52:09;;;;;;;15.70;10.13;;;;;;;24.24;42.08;95472.41;5074636;28;20520;-78
2023/10/04 10:54:37;;;;;;;17.00;11.10;;;;;;;24.33;41.89;95465.88;5074731;28;20851;-78
2023/10/04 10:57:06;;;;;;;14.40;8.90;;;;;;;24.44;41.65;95462.59;5074566;28;20942;-78
2023/10/04 10:59:34;;;;;;;15.03;8.43;;;;;;;24.56;41.20;95457.47;5075046;28;20490;-79
2023/10/04 11:02:04;;;;;;;20.17;9.23;;;;;;;24.62;39.17;95460.19;5074900;28;20436;-79
2023/10/04 11:04:31;;;;;;;15.73;9.30;;;;;;;24.69;40.10;95452.97;5074497;28;20447;-79
2023/10/04 11:06:57;;;;;;;16.27;10.10;;;;;;;24.71;38.67;95456.28;5074293;28;20756;-78
2023/10/04 11:09:26;;;;;;;15.60;8.20;;;;;;;24.80;38.30;95456.91;5074814;28;20448;-78
2023/10/04 11:11:54;;;;;;;19.17;8.70;;;;;;;24.90;38.04;95451.97;5039516;28;20516;-79
2023/10/04 11:14:21;;;;;;;18.10;10.53;;;;;;;24.99;36.83;95449.94;5074725;28;20852;-79
2023/10/04 11:16:49;;;;;;;13.90;8.67;;;;;;;25.08;37.62;95454.06;5074102;28;20479;-78
2023/10/04 11:19:16;;;;;;;14.37;8.53;;;;;;;25.12;36.17;95455.31;5074261;28;20996;-78
2023/10/04 11:21:45;;;;;;;14.23;8.40;;;;;;;25.21;36.49;95446.03;5073542;28;20440;-78
2023/10/04 11:24:14;;;;;;;14.60;9.00;;;;;;;25.26;35.40;95446.25;5074411;28;20487;-79
2023/10/04 11:26:43;;;;;;;12.83;8.17;;;;;;;25.30;35.60;95441.28;5074104;28;20515;-78